sensor_id;sensor_type;location;lat;lon;timestamp;P1;durP1;ratioP1;P2;durP2;ratioP2
71176;SDS011;58877;51.992;4.504;2023-04-03T00:00:16;1.39;;;1.35;;
71176;SDS011;58877;51.992;4.504;2023-04-03T00:02:42;1.45;;;1.42;;
71176;SDS011;58877;51.992;4.504;2023-04-03T00:05:08;1.57;;;1.54;;
71176;SDS011;58877;51.992;4.504;2023-04-03T00:07:34;1.56;;;1.52;;
71176;SDS011;58877;51.992;4.504;2023-04-03T00:10:00;1.69;;;1.66;;
71176;SDS011;58877;51.992;4.504;2023-04-03T00:12:29;1.44;;;1.42;;
71176;SDS011;58877;51.992;4.504;2023-04-03T00:14:55;1.60;;;1.58;;
71176;SDS011;58877;51.992;4.504;2023-04-03T00:17:21;1.76;;;1.73;;
71176;SDS011;58877;51.992;4.504;2023-04-03T00:19:46;1.54;;;1.52;;
71176;SDS011;58877;51.992;4.504;2023-04-03T00:22:12;1.74;;;1.72;;
71176;SDS011;58877;51.992;4.504;2023-04-03T00:24:38;1.45;;;1.43;;
71176;SDS011;58877;51.992;4.504;2023-04-03T00:27:04;1.40;;;1.38;;
71176;SDS011;58877;51.992;4.504;2023-04-03T00:29:30;1.52;;;1.51;;
71176;SDS011;58877;51.992;4.504;2023-04-03T00:31:55;1.65;;;1.64;;
71176;SDS011;58877;51.992;4.504;2023-04-03T00:34:21;1.68;;;1.67;;
71176;SDS011;58877;51.992;4.504;2023-04-03T00:36:46;1.51;;;1.50;;
71176;SDS011;58877;51.992;4.504;2023-04-03T00:39:12;1.74;;;1.72;;
71176;SDS011;58877;51.992;4.504;2023-04-03T00:41:38;1.57;;;1.56;;
71176;SDS011;58877;51.992;4.504;2023-04-03T00:44:23;1.47;;;1.46;;
71176;SDS011;58877;51.992;4.504;2023-04-03T00:47:08;1.65;;;1.64;;
71176;SDS011;58877;51.992;4.504;2023-04-03T00:49:37;1.77;;;1.76;;
71176;SDS011;58877;51.992;4.504;2023-04-03T00:52:04;1.46;;;1.44;;
71176;SDS011;58877;51.992;4.504;2023-04-03T00:54:34;1.76;;;1.74;;
71176;SDS011;58877;51.992;4.504;2023-04-03T00:57:02;1.49;;;1.47;;
71176;SDS011;58877;51.992;4.504;2023-04-03T00:59:31;1.81;;;1.78;;
71176;SDS011;58877;51.992;4.504;2023-04-03T01:02:01;1.80;;;1.77;;
71176;SDS011;58877;51.992;4.504;2023-04-03T01:06:53;1.41;;;1.40;;
71176;SDS011;58877;51.992;4.504;2023-04-03T01:09:22;1.70;;;1.69;;
71176;SDS011;58877;51.992;4.504;2023-04-03T01:11:47;1.51;;;1.50;;
71176;SDS011;58877;51.992;4.504;2023-04-03T01:14:13;1.82;;;1.81;;
71176;SDS011;58877;51.992;4.504;2023-04-03T01:16:39;1.57;;;1.56;;
71176;SDS011;58877;51.992;4.504;2023-04-03T01:19:05;1.48;;;1.46;;
71176;SDS011;58877;51.992;4.504;2023-04-03T01:22:03;1.50;;;1.48;;
71176;SDS011;58877;51.992;4.504;2023-04-03T01:24:35;1.62;;;1.60;;
71176;SDS011;58877;51.992;4.504;2023-04-03T01:27:04;1.64;;;1.63;;
71176;SDS011;58877;51.992;4.504;2023-04-03T01:29:32;1.76;;;1.75;;
71176;SDS011;58877;51.992;4.504;2023-04-03T01:32:01;1.70;;;1.69;;
71176;SDS011;58877;51.992;4.504;2023-04-03T01:34:28;1.53;;;1.52;;
71176;SDS011;58877;51.992;4.504;2023-04-03T01:36:55;1.53;;;1.51;;
71176;SDS011;58877;51.992;4.504;2023-04-03T01:39:21;1.85;;;1.84;;
71176;SDS011;58877;51.992;4.504;2023-04-03T01:41:47;1.72;;;1.70;;
71176;SDS011;58877;51.992;4.504;2023-04-03T01:44:13;1.54;;;1.53;;
71176;SDS011;58877;51.992;4.504;2023-04-03T01:46:39;1.67;;;1.65;;
71176;SDS011;58877;51.992;4.504;2023-04-03T01:49:04;1.54;;;1.52;;
71176;SDS011;58877;51.992;4.504;2023-04-03T01:51:30;1.47;;;1.45;;
71176;SDS011;58877;51.992;4.504;2023-04-03T01:53:56;1.77;;;1.76;;
71176;SDS011;58877;51.992;4.504;2023-04-03T01:56:22;1.59;;;1.58;;
71176;SDS011;58877;51.992;4.504;2023-04-03T01:58:47;1.74;;;1.74;;
71176;SDS011;58877;51.992;4.504;2023-04-03T02:01:13;1.76;;;1.75;;
71176;SDS011;58877;51.992;4.504;2023-04-03T02:03:39;1.47;;;1.46;;
71176;SDS011;58877;51.992;4.504;2023-04-03T02:06:04;1.48;;;1.47;;
71176;SDS011;58877;51.992;4.504;2023-04-03T02:08:30;1.78;;;1.77;;
71176;SDS011;58877;51.992;4.504;2023-04-03T02:10:56;1.54;;;1.52;;
71176;SDS011;58877;51.992;4.504;2023-04-03T02:13:21;1.52;;;1.50;;
71176;SDS011;58877;51.992;4.504;2023-04-03T02:15:47;1.40;;;1.38;;
71176;SDS011;58877;51.992;4.504;2023-04-03T02:18:13;1.76;;;1.73;;
71176;SDS011;58877;51.992;4.504;2023-04-03T02:20:39;1.83;;;1.80;;
71176;SDS011;58877;51.992;4.504;2023-04-03T02:23:05;1.71;;;1.66;;
71176;SDS011;58877;51.992;4.504;2023-04-03T02:25:32;1.80;;;1.76;;
71176;SDS011;58877;51.992;4.504;2023-04-03T02:27:58;1.71;;;1.69;;
71176;SDS011;58877;51.992;4.504;2023-04-03T02:30:24;1.73;;;1.72;;
71176;SDS011;58877;51.992;4.504;2023-04-03T02:32:50;1.63;;;1.61;;
71176;SDS011;58877;51.992;4.504;2023-04-03T02:35:15;1.88;;;1.85;;
71176;SDS011;58877;51.992;4.504;2023-04-03T02:37:41;1.86;;;1.81;;
71176;SDS011;58877;51.992;4.504;2023-04-03T02:40:08;1.61;;;1.57;;
71176;SDS011;58877;51.992;4.504;2023-04-03T02:42:34;1.66;;;1.63;;
71176;SDS011;58877;51.992;4.504;2023-04-03T02:45:00;1.63;;;1.61;;
71176;SDS011;58877;51.992;4.504;2023-04-03T02:47:26;1.85;;;1.82;;
71176;SDS011;58877;51.992;4.504;2023-04-03T02:49:52;2.21;;;2.16;;
71176;SDS011;58877;51.992;4.504;2023-04-03T02:52:18;1.94;;;1.88;;
71176;SDS011;58877;51.992;4.504;2023-04-03T02:54:44;1.71;;;1.67;;
71176;SDS011;58877;51.992;4.504;2023-04-03T02:57:09;1.58;;;1.56;;
71176;SDS011;58877;51.992;4.504;2023-04-03T02:59:38;1.78;;;1.76;;
71176;SDS011;58877;51.992;4.504;2023-04-03T03:02:07;2.00;;;1.97;;
71176;SDS011;58877;51.992;4.504;2023-04-03T03:04:33;1.82;;;1.81;;
71176;SDS011;58877;51.992;4.504;2023-04-03T03:06:59;1.72;;;1.70;;
71176;SDS011;58877;51.992;4.504;2023-04-03T03:09:25;1.95;;;1.92;;
71176;SDS011;58877;51.992;4.504;2023-04-03T03:11:51;2.02;;;1.99;;
71176;SDS011;58877;51.992;4.504;2023-04-03T03:14:17;1.88;;;1.86;;
71176;SDS011;58877;51.992;4.504;2023-04-03T03:16:43;1.97;;;1.93;;
71176;SDS011;58877;51.992;4.504;2023-04-03T03:19:09;1.89;;;1.85;;
71176;SDS011;58877;51.992;4.504;2023-04-03T03:21:35;2.27;;;2.23;;
71176;SDS011;58877;51.992;4.504;2023-04-03T03:24:02;2.22;;;2.19;;
71176;SDS011;58877;51.992;4.504;2023-04-03T03:26:27;2.07;;;2.02;;
71176;SDS011;58877;51.992;4.504;2023-04-03T03:28:53;2.36;;;2.30;;
71176;SDS011;58877;51.992;4.504;2023-04-03T03:31:20;1.86;;;1.82;;
71176;SDS011;58877;51.992;4.504;2023-04-03T03:33:46;2.14;;;2.11;;
71176;SDS011;58877;51.992;4.504;2023-04-03T03:36:12;2.07;;;2.04;;
71176;SDS011;58877;51.992;4.504;2023-04-03T03:38:37;1.85;;;1.83;;
71176;SDS011;58877;51.992;4.504;2023-04-03T03:41:03;2.15;;;2.13;;
71176;SDS011;58877;51.992;4.504;2023-04-03T03:43:28;2.13;;;2.12;;
71176;SDS011;58877;51.992;4.504;2023-04-03T03:45:54;2.16;;;2.16;;
71176;SDS011;58877;51.992;4.504;2023-04-03T03:48:21;2.13;;;2.12;;
71176;SDS011;58877;51.992;4.504;2023-04-03T03:50:47;2.14;;;2.12;;
71176;SDS011;58877;51.992;4.504;2023-04-03T03:53:13;2.23;;;2.21;;
71176;SDS011;58877;51.992;4.504;2023-04-03T03:55:40;2.30;;;2.28;;
71176;SDS011;58877;51.992;4.504;2023-04-03T03:58:06;2.19;;;2.17;;
71176;SDS011;58877;51.992;4.504;2023-04-03T04:00:32;2.12;;;2.10;;
71176;SDS011;58877;51.992;4.504;2023-04-03T04:02:58;2.09;;;2.08;;
71176;SDS011;58877;51.992;4.504;2023-04-03T04:05:23;2.26;;;2.23;;
71176;SDS011;58877;51.992;4.504;2023-04-03T04:07:49;2.30;;;2.28;;
71176;SDS011;58877;51.992;4.504;2023-04-03T04:10:16;2.27;;;2.26;;
71176;SDS011;58877;51.992;4.504;2023-04-03T04:12:41;2.40;;;2.39;;
71176;SDS011;58877;51.992;4.504;2023-04-03T04:15:07;2.27;;;2.26;;
71176;SDS011;58877;51.992;4.504;2023-04-03T04:17:33;2.08;;;2.07;;
71176;SDS011;58877;51.992;4.504;2023-04-03T04:20:00;2.33;;;2.32;;
71176;SDS011;58877;51.992;4.504;2023-04-03T04:22:27;2.22;;;2.21;;
71176;SDS011;58877;51.992;4.504;2023-04-03T04:24:53;2.20;;;2.18;;
71176;SDS011;58877;51.992;4.504;2023-04-03T04:27:18;2.44;;;2.42;;
71176;SDS011;58877;51.992;4.504;2023-04-03T04:29:44;2.24;;;2.22;;
71176;SDS011;58877;51.992;4.504;2023-04-03T04:32:09;2.22;;;2.20;;
71176;SDS011;58877;51.992;4.504;2023-04-03T04:34:35;2.42;;;2.42;;
71176;SDS011;58877;51.992;4.504;2023-04-03T04:37:01;2.36;;;2.35;;
71176;SDS011;58877;51.992;4.504;2023-04-03T04:39:26;2.49;;;2.46;;
71176;SDS011;58877;51.992;4.504;2023-04-03T04:41:52;2.54;;;2.53;;
71176;SDS011;58877;51.992;4.504;2023-04-03T04:44:17;2.73;;;2.71;;
71176;SDS011;58877;51.992;4.504;2023-04-03T04:46:43;2.73;;;2.70;;
71176;SDS011;58877;51.992;4.504;2023-04-03T04:49:08;2.66;;;2.62;;
71176;SDS011;58877;51.992;4.504;2023-04-03T04:51:34;2.33;;;2.31;;
71176;SDS011;58877;51.992;4.504;2023-04-03T04:54:00;2.61;;;2.57;;
71176;SDS011;58877;51.992;4.504;2023-04-03T04:56:25;2.50;;;2.47;;
71176;SDS011;58877;51.992;4.504;2023-04-03T04:58:51;2.46;;;2.42;;
71176;SDS011;58877;51.992;4.504;2023-04-03T05:01:16;2.28;;;2.24;;
71176;SDS011;58877;51.992;4.504;2023-04-03T05:03:43;2.65;;;2.62;;
71176;SDS011;58877;51.992;4.504;2023-04-03T05:06:09;2.76;;;2.73;;
71176;SDS011;58877;51.992;4.504;2023-04-03T05:08:35;2.63;;;2.60;;
71176;SDS011;58877;51.992;4.504;2023-04-03T05:11:01;2.70;;;2.67;;
71176;SDS011;58877;51.992;4.504;2023-04-03T05:13:26;2.42;;;2.40;;
71176;SDS011;58877;51.992;4.504;2023-04-03T05:15:52;2.83;;;2.80;;
71176;SDS011;58877;51.992;4.504;2023-04-03T05:18:18;2.59;;;2.56;;
71176;SDS011;58877;51.992;4.504;2023-04-03T05:20:43;2.81;;;2.77;;
71176;SDS011;58877;51.992;4.504;2023-04-03T05:23:09;3.04;;;2.98;;
71176;SDS011;58877;51.992;4.504;2023-04-03T05:25:39;2.86;;;2.76;;
71176;SDS011;58877;51.992;4.504;2023-04-03T05:28:05;2.92;;;2.81;;
71176;SDS011;58877;51.992;4.504;2023-04-03T05:30:31;3.11;;;3.05;;
71176;SDS011;58877;51.992;4.504;2023-04-03T05:32:58;3.06;;;3.02;;
71176;SDS011;58877;51.992;4.504;2023-04-03T05:35:24;3.10;;;3.08;;
71176;SDS011;58877;51.992;4.504;2023-04-03T05:37:50;2.55;;;2.53;;
71176;SDS011;58877;51.992;4.504;2023-04-03T05:40:16;2.78;;;2.77;;
71176;SDS011;58877;51.992;4.504;2023-04-03T05:42:41;2.57;;;2.55;;
71176;SDS011;58877;51.992;4.504;2023-04-03T05:45:07;2.96;;;2.94;;
71176;SDS011;58877;51.992;4.504;2023-04-03T05:47:33;2.98;;;2.94;;
71176;SDS011;58877;51.992;4.504;2023-04-03T05:49:58;2.88;;;2.85;;
71176;SDS011;58877;51.992;4.504;2023-04-03T05:52:35;2.77;;;2.77;;
71176;SDS011;58877;51.992;4.504;2023-04-03T05:55:03;3.07;;;3.07;;
71176;SDS011;58877;51.992;4.504;2023-04-03T05:57:29;2.81;;;2.80;;
71176;SDS011;58877;51.992;4.504;2023-04-03T05:59:55;2.44;;;2.43;;
71176;SDS011;58877;51.992;4.504;2023-04-03T06:02:21;3.01;;;3.00;;
71176;SDS011;58877;51.992;4.504;2023-04-03T06:04:48;2.84;;;2.83;;
71176;SDS011;58877;51.992;4.504;2023-04-03T06:07:16;2.95;;;2.93;;
71176;SDS011;58877;51.992;4.504;2023-04-03T06:09:47;2.98;;;2.94;;
71176;SDS011;58877;51.992;4.504;2023-04-03T06:12:13;3.28;;;3.18;;
71176;SDS011;58877;51.992;4.504;2023-04-03T06:14:40;3.00;;;2.93;;
71176;SDS011;58877;51.992;4.504;2023-04-03T06:17:06;3.08;;;3.04;;
71176;SDS011;58877;51.992;4.504;2023-04-03T06:19:34;3.24;;;3.20;;
71176;SDS011;58877;51.992;4.504;2023-04-03T06:22:01;3.39;;;3.35;;
71176;SDS011;58877;51.992;4.504;2023-04-03T06:24:28;3.32;;;3.26;;
71176;SDS011;58877;51.992;4.504;2023-04-03T06:26:56;2.65;;;2.61;;
71176;SDS011;58877;51.992;4.504;2023-04-03T06:29:23;2.70;;;2.65;;
71176;SDS011;58877;51.992;4.504;2023-04-03T06:31:49;2.94;;;2.88;;
71176;SDS011;58877;51.992;4.504;2023-04-03T06:34:16;2.30;;;2.25;;
71176;SDS011;58877;51.992;4.504;2023-04-03T06:36:43;2.82;;;2.74;;
71176;SDS011;58877;51.992;4.504;2023-04-03T06:39:13;2.52;;;2.43;;
71176;SDS011;58877;51.992;4.504;2023-04-03T06:41:41;2.66;;;2.57;;
71176;SDS011;58877;51.992;4.504;2023-04-03T06:44:07;2.69;;;2.59;;
71176;SDS011;58877;51.992;4.504;2023-04-03T06:46:36;2.67;;;2.55;;
71176;SDS011;58877;51.992;4.504;2023-04-03T06:49:03;2.80;;;2.66;;
71176;SDS011;58877;51.992;4.504;2023-04-03T06:51:29;2.79;;;2.64;;
71176;SDS011;58877;51.992;4.504;2023-04-03T06:53:57;2.86;;;2.72;;
71176;SDS011;58877;51.992;4.504;2023-04-03T06:56:23;2.74;;;2.65;;
71176;SDS011;58877;51.992;4.504;2023-04-03T06:58:50;2.79;;;2.72;;
71176;SDS011;58877;51.992;4.504;2023-04-03T07:01:17;2.72;;;2.64;;
71176;SDS011;58877;51.992;4.504;2023-04-03T07:03:47;2.23;;;2.17;;
71176;SDS011;58877;51.992;4.504;2023-04-03T07:06:15;2.68;;;2.61;;
71176;SDS011;58877;51.992;4.504;2023-04-03T07:08:42;3.18;;;3.08;;
71176;SDS011;58877;51.992;4.504;2023-04-03T07:11:09;2.93;;;2.83;;
71176;SDS011;58877;51.992;4.504;2023-04-03T07:13:37;2.57;;;2.47;;
71176;SDS011;58877;51.992;4.504;2023-04-03T07:16:04;2.58;;;2.44;;
71176;SDS011;58877;51.992;4.504;2023-04-03T07:18:31;2.21;;;2.10;;
71176;SDS011;58877;51.992;4.504;2023-04-03T07:20:58;2.58;;;2.47;;
71176;SDS011;58877;51.992;4.504;2023-04-03T07:23:24;2.45;;;2.35;;
71176;SDS011;58877;51.992;4.504;2023-04-03T07:25:50;2.52;;;2.39;;
71176;SDS011;58877;51.992;4.504;2023-04-03T07:28:17;2.32;;;2.21;;
71176;SDS011;58877;51.992;4.504;2023-04-03T07:30:49;2.94;;;2.84;;
71176;SDS011;58877;51.992;4.504;2023-04-03T07:33:24;2.36;;;2.30;;
71176;SDS011;58877;51.992;4.504;2023-04-03T07:35:49;2.05;;;2.01;;
71176;SDS011;58877;51.992;4.504;2023-04-03T07:38:15;2.25;;;2.20;;
71176;SDS011;58877;51.992;4.504;2023-04-03T07:40:45;2.13;;;2.08;;
71176;SDS011;58877;51.992;4.504;2023-04-03T07:43:13;2.31;;;2.22;;
71176;SDS011;58877;51.992;4.504;2023-04-03T07:45:39;2.39;;;2.30;;
71176;SDS011;58877;51.992;4.504;2023-04-03T07:48:05;2.80;;;2.68;;
71176;SDS011;58877;51.992;4.504;2023-04-03T07:50:30;2.44;;;2.33;;
71176;SDS011;58877;51.992;4.504;2023-04-03T07:52:57;2.17;;;2.07;;
71176;SDS011;58877;51.992;4.504;2023-04-03T07:55:24;2.19;;;2.10;;
71176;SDS011;58877;51.992;4.504;2023-04-03T07:57:50;2.23;;;2.15;;
71176;SDS011;58877;51.992;4.504;2023-04-03T08:00:16;2.43;;;2.32;;
71176;SDS011;58877;51.992;4.504;2023-04-03T08:02:43;2.87;;;2.70;;
71176;SDS011;58877;51.992;4.504;2023-04-03T08:05:09;2.43;;;2.31;;
71176;SDS011;58877;51.992;4.504;2023-04-03T08:07:39;2.23;;;2.11;;
71176;SDS011;58877;51.992;4.504;2023-04-03T08:10:05;2.26;;;2.11;;
71176;SDS011;58877;51.992;4.504;2023-04-03T08:12:31;1.95;;;1.82;;
71176;SDS011;58877;51.992;4.504;2023-04-03T08:14:57;2.56;;;2.38;;
71176;SDS011;58877;51.992;4.504;2023-04-03T08:17:25;2.43;;;2.25;;
71176;SDS011;58877;51.992;4.504;2023-04-03T08:19:51;1.74;;;1.63;;
71176;SDS011;58877;51.992;4.504;2023-04-03T08:22:16;2.17;;;2.05;;
71176;SDS011;58877;51.992;4.504;2023-04-03T08:24:42;2.35;;;2.18;;
71176;SDS011;58877;51.992;4.504;2023-04-03T08:27:09;2.17;;;2.06;;
71176;SDS011;58877;51.992;4.504;2023-04-03T08:29:35;2.06;;;1.96;;
71176;SDS011;58877;51.992;4.504;2023-04-03T08:32:03;2.29;;;2.18;;
71176;SDS011;58877;51.992;4.504;2023-04-03T08:34:29;2.33;;;2.23;;
71176;SDS011;58877;51.992;4.504;2023-04-03T08:36:55;2.23;;;2.09;;
71176;SDS011;58877;51.992;4.504;2023-04-03T08:39:21;2.30;;;2.14;;
71176;SDS011;58877;51.992;4.504;2023-04-03T08:41:47;2.17;;;2.02;;
71176;SDS011;58877;51.992;4.504;2023-04-03T08:44:26;2.01;;;1.86;;
71176;SDS011;58877;51.992;4.504;2023-04-03T08:47:28;2.34;;;2.18;;
71176;SDS011;58877;51.992;4.504;2023-04-03T08:50:19;2.32;;;2.18;;
71176;SDS011;58877;51.992;4.504;2023-04-03T08:52:48;2.12;;;1.99;;
71176;SDS011;58877;51.992;4.504;2023-04-03T08:55:26;3.53;;;3.33;;
71176;SDS011;58877;51.992;4.504;2023-04-03T08:58:16;2.08;;;1.97;;
71176;SDS011;58877;51.992;4.504;2023-04-03T09:00:51;1.74;;;1.64;;
71176;SDS011;58877;51.992;4.504;2023-04-03T09:03:32;1.76;;;1.64;;
71176;SDS011;58877;51.992;4.504;2023-04-03T09:06:06;1.93;;;1.78;;
71176;SDS011;58877;51.992;4.504;2023-04-03T09:08:43;1.79;;;1.67;;
71176;SDS011;58877;51.992;4.504;2023-04-03T09:11:38;1.84;;;1.73;;
71176;SDS011;58877;51.992;4.504;2023-04-03T09:14:20;1.54;;;1.44;;
71176;SDS011;58877;51.992;4.504;2023-04-03T09:17:00;1.69;;;1.58;;
71176;SDS011;58877;51.992;4.504;2023-04-03T09:19:39;1.19;;;1.13;;
71176;SDS011;58877;51.992;4.504;2023-04-03T09:22:26;1.49;;;1.42;;
71176;SDS011;58877;51.992;4.504;2023-04-03T09:27:43;1.47;;;1.38;;
71176;SDS011;58877;51.992;4.504;2023-04-03T09:30:16;1.46;;;1.37;;
71176;SDS011;58877;51.992;4.504;2023-04-03T09:32:47;1.52;;;1.44;;
71176;SDS011;58877;51.992;4.504;2023-04-03T09:35:19;1.49;;;1.41;;
71176;SDS011;58877;51.992;4.504;2023-04-03T09:37:52;1.32;;;1.24;;
71176;SDS011;58877;51.992;4.504;2023-04-03T09:42:51;1.23;;;1.15;;
71176;SDS011;58877;51.992;4.504;2023-04-03T09:45:32;1.25;;;1.15;;
71176;SDS011;58877;51.992;4.504;2023-04-03T09:48:06;0.99;;;0.92;;
71176;SDS011;58877;51.992;4.504;2023-04-03T09:53:35;1.07;;;1.02;;
71176;SDS011;58877;51.992;4.504;2023-04-03T09:56:01;1.44;;;1.35;;
71176;SDS011;58877;51.992;4.504;2023-04-03T09:58:37;1.50;;;1.40;;
71176;SDS011;58877;51.992;4.504;2023-04-03T10:01:06;1.22;;;1.14;;
71176;SDS011;58877;51.992;4.504;2023-04-03T10:03:45;1.06;;;0.99;;
71176;SDS011;58877;51.992;4.504;2023-04-03T10:06:21;1.29;;;1.21;;
71176;SDS011;58877;51.992;4.504;2023-04-03T10:08:58;1.19;;;1.12;;
71176;SDS011;58877;51.992;4.504;2023-04-03T10:11:26;1.04;;;0.99;;
71176;SDS011;58877;51.992;4.504;2023-04-03T10:13:53;1.29;;;1.22;;
71176;SDS011;58877;51.992;4.504;2023-04-03T10:16:25;1.13;;;1.06;;
71176;SDS011;58877;51.992;4.504;2023-04-03T10:33:26;1.12;;;1.06;;
71176;SDS011;58877;51.992;4.504;2023-04-03T10:36:12;1.21;;;1.15;;
71176;SDS011;58877;51.992;4.504;2023-04-03T10:46:50;0.88;;;0.84;;
71176;SDS011;58877;51.992;4.504;2023-04-03T10:52:09;1.10;;;1.03;;
71176;SDS011;58877;51.992;4.504;2023-04-03T10:54:40;0.97;;;0.92;;
71176;SDS011;58877;51.992;4.504;2023-04-03T10:57:21;1.25;;;1.19;;
71176;SDS011;58877;51.992;4.504;2023-04-03T10:59:57;1.17;;;1.11;;
71176;SDS011;58877;51.992;4.504;2023-04-03T11:02:54;0.98;;;0.92;;
71176;SDS011;58877;51.992;4.504;2023-04-03T11:05:34;0.99;;;0.93;;
71176;SDS011;58877;51.992;4.504;2023-04-03T11:08:09;1.21;;;1.14;;
71176;SDS011;58877;51.992;4.504;2023-04-03T11:10:49;0.86;;;0.82;;
71176;SDS011;58877;51.992;4.504;2023-04-03T11:13:31;0.89;;;0.84;;
71176;SDS011;58877;51.992;4.504;2023-04-03T11:16:27;0.87;;;0.83;;
71176;SDS011;58877;51.992;4.504;2023-04-03T11:18:59;0.97;;;0.93;;
71176;SDS011;58877;51.992;4.504;2023-04-03T11:21:34;1.00;;;0.96;;
71176;SDS011;58877;51.992;4.504;2023-04-03T11:24:09;1.07;;;1.03;;
71176;SDS011;58877;51.992;4.504;2023-04-03T11:26:47;0.87;;;0.83;;
71176;SDS011;58877;51.992;4.504;2023-04-03T11:29:24;0.63;;;0.60;;
71176;SDS011;58877;51.992;4.504;2023-04-03T11:32:27;0.66;;;0.64;;
71176;SDS011;58877;51.992;4.504;2023-04-03T11:35:16;0.82;;;0.80;;
71176;SDS011;58877;51.992;4.504;2023-04-03T11:38:02;1.02;;;0.98;;
71176;SDS011;58877;51.992;4.504;2023-04-03T11:40:34;1.07;;;1.04;;
71176;SDS011;58877;51.992;4.504;2023-04-03T11:43:07;0.62;;;0.60;;
71176;SDS011;58877;51.992;4.504;2023-04-03T11:45:51;0.92;;;0.88;;
71176;SDS011;58877;51.992;4.504;2023-04-03T11:51:39;0.66;;;0.63;;
71176;SDS011;58877;51.992;4.504;2023-04-03T11:53:54;0.42;;;0.40;;
71176;SDS011;58877;51.992;4.504;2023-04-03T11:56:58;0.60;;;0.57;;
71176;SDS011;58877;51.992;4.504;2023-04-03T11:59:24;0.53;;;0.51;;
71176;SDS011;58877;51.992;4.504;2023-04-03T12:01:56;0.45;;;0.43;;
71176;SDS011;58877;51.992;4.504;2023-04-03T12:04:26;0.73;;;0.70;;
71176;SDS011;58877;51.992;4.504;2023-04-03T12:07:16;0.55;;;0.52;;
71176;SDS011;58877;51.992;4.504;2023-04-03T12:15:11;0.45;;;0.43;;
71176;SDS011;58877;51.992;4.504;2023-04-03T12:17:48;0.72;;;0.69;;
71176;SDS011;58877;51.992;4.504;2023-04-03T12:23:31;0.56;;;0.53;;
71176;SDS011;58877;51.992;4.504;2023-04-03T12:26:00;0.73;;;0.70;;
71176;SDS011;58877;51.992;4.504;2023-04-03T12:28:46;0.81;;;0.78;;
71176;SDS011;58877;51.992;4.504;2023-04-03T12:31:17;0.73;;;0.69;;
71176;SDS011;58877;51.992;4.504;2023-04-03T12:34:24;0.64;;;0.61;;
71176;SDS011;58877;51.992;4.504;2023-04-03T12:45:30;0.67;;;0.65;;
71176;SDS011;58877;51.992;4.504;2023-04-03T12:48:15;0.89;;;0.84;;
71176;SDS011;58877;51.992;4.504;2023-04-03T12:50:44;0.88;;;0.83;;
71176;SDS011;58877;51.992;4.504;2023-04-03T12:53:19;0.93;;;0.89;;
71176;SDS011;58877;51.992;4.504;2023-04-03T12:55:54;0.73;;;0.70;;
71176;SDS011;58877;51.992;4.504;2023-04-03T12:58:22;0.91;;;0.88;;
71176;SDS011;58877;51.992;4.504;2023-04-03T13:01:12;1.09;;;1.03;;
71176;SDS011;58877;51.992;4.504;2023-04-03T13:03:53;0.98;;;0.92;;
71176;SDS011;58877;51.992;4.504;2023-04-03T13:06:23;1.11;;;1.03;;
71176;SDS011;58877;51.992;4.504;2023-04-03T13:08:56;1.21;;;1.11;;
71176;SDS011;58877;51.992;4.504;2023-04-03T13:11:25;1.22;;;1.12;;
71176;SDS011;58877;51.992;4.504;2023-04-03T13:14:00;0.94;;;0.86;;
71176;SDS011;58877;51.992;4.504;2023-04-03T13:16:30;1.26;;;1.15;;
71176;SDS011;58877;51.992;4.504;2023-04-03T13:18:57;1.32;;;1.21;;
71176;SDS011;58877;51.992;4.504;2023-04-03T13:23:53;1.23;;;1.14;;
71176;SDS011;58877;51.992;4.504;2023-04-03T13:26:27;1.19;;;1.11;;
71176;SDS011;58877;51.992;4.504;2023-04-03T13:29:01;1.22;;;1.15;;
71176;SDS011;58877;51.992;4.504;2023-04-03T13:31:38;1.35;;;1.27;;
71176;SDS011;58877;51.992;4.504;2023-04-03T13:34:34;1.26;;;1.16;;
71176;SDS011;58877;51.992;4.504;2023-04-03T13:39:21;2.55;;;2.31;;
71176;SDS011;58877;51.992;4.504;2023-04-03T13:41:54;6.44;;;5.24;;
71176;SDS011;58877;51.992;4.504;2023-04-03T13:46:47;1.77;;;1.45;;
71176;SDS011;58877;51.992;4.504;2023-04-03T13:51:51;1.43;;;1.25;;
71176;SDS011;58877;51.992;4.504;2023-04-03T13:54:22;1.21;;;1.07;;
71176;SDS011;58877;51.992;4.504;2023-04-03T13:57:15;1.17;;;1.07;;
71176;SDS011;58877;51.992;4.504;2023-04-03T13:59:41;1.45;;;1.35;;
71176;SDS011;58877;51.992;4.504;2023-04-03T14:02:16;1.28;;;1.20;;
71176;SDS011;58877;51.992;4.504;2023-04-03T14:04:54;1.15;;;1.09;;
71176;SDS011;58877;51.992;4.504;2023-04-03T14:07:26;1.36;;;1.29;;
71176;SDS011;58877;51.992;4.504;2023-04-03T14:09:57;1.31;;;1.24;;
71176;SDS011;58877;51.992;4.504;2023-04-03T14:12:36;1.20;;;1.15;;
71176;SDS011;58877;51.992;4.504;2023-04-03T14:15:12;1.12;;;1.09;;
71176;SDS011;58877;51.992;4.504;2023-04-03T14:17:41;1.18;;;1.14;;
71176;SDS011;58877;51.992;4.504;2023-04-03T14:20:10;1.22;;;1.18;;
71176;SDS011;58877;51.992;4.504;2023-04-03T14:22:40;1.41;;;1.36;;
71176;SDS011;58877;51.992;4.504;2023-04-03T14:25:06;1.25;;;1.21;;
71176;SDS011;58877;51.992;4.504;2023-04-03T14:27:43;1.06;;;1.03;;
71176;SDS011;58877;51.992;4.504;2023-04-03T14:30:20;1.25;;;1.20;;
71176;SDS011;58877;51.992;4.504;2023-04-03T14:32:50;1.33;;;1.28;;
71176;SDS011;58877;51.992;4.504;2023-04-03T14:35:19;1.28;;;1.23;;
71176;SDS011;58877;51.992;4.504;2023-04-03T14:37:46;1.17;;;1.13;;
71176;SDS011;58877;51.992;4.504;2023-04-03T14:40:18;1.03;;;1.00;;
71176;SDS011;58877;51.992;4.504;2023-04-03T14:42:51;1.01;;;0.99;;
71176;SDS011;58877;51.992;4.504;2023-04-03T14:45:20;1.18;;;1.15;;
71176;SDS011;58877;51.992;4.504;2023-04-03T14:47:48;1.05;;;1.02;;
71176;SDS011;58877;51.992;4.504;2023-04-03T14:50:20;1.16;;;1.14;;
71176;SDS011;58877;51.992;4.504;2023-04-03T14:52:57;1.05;;;1.03;;
71176;SDS011;58877;51.992;4.504;2023-04-03T14:55:24;1.15;;;1.13;;
71176;SDS011;58877;51.992;4.504;2023-04-03T14:57:52;1.15;;;1.13;;
71176;SDS011;58877;51.992;4.504;2023-04-03T15:00:24;1.00;;;0.98;;
71176;SDS011;58877;51.992;4.504;2023-04-03T15:02:50;1.12;;;1.11;;
71176;SDS011;58877;51.992;4.504;2023-04-03T15:05:18;0.93;;;0.92;;
71176;SDS011;58877;51.992;4.504;2023-04-03T15:07:47;1.09;;;1.08;;
71176;SDS011;58877;51.992;4.504;2023-04-03T15:10:18;1.00;;;0.99;;
71176;SDS011;58877;51.992;4.504;2023-04-03T15:12:46;1.30;;;1.29;;
71176;SDS011;58877;51.992;4.504;2023-04-03T15:15:17;1.16;;;1.15;;
71176;SDS011;58877;51.992;4.504;2023-04-03T15:17:45;1.24;;;1.22;;
71176;SDS011;58877;51.992;4.504;2023-04-03T15:20:20;1.38;;;1.35;;
71176;SDS011;58877;51.992;4.504;2023-04-03T15:23:02;1.01;;;0.99;;
71176;SDS011;58877;51.992;4.504;2023-04-03T15:25:28;1.09;;;1.07;;
71176;SDS011;58877;51.992;4.504;2023-04-03T15:27:57;1.08;;;1.07;;
71176;SDS011;58877;51.992;4.504;2023-04-03T15:30:26;1.15;;;1.13;;
71176;SDS011;58877;51.992;4.504;2023-04-03T15:32:52;1.00;;;0.98;;
71176;SDS011;58877;51.992;4.504;2023-04-03T15:35:18;1.18;;;1.15;;
71176;SDS011;58877;51.992;4.504;2023-04-03T15:37:48;1.43;;;1.38;;
71176;SDS011;58877;51.992;4.504;2023-04-03T15:40:16;1.23;;;1.19;;
71176;SDS011;58877;51.992;4.504;2023-04-03T15:42:42;1.25;;;1.19;;
71176;SDS011;58877;51.992;4.504;2023-04-03T15:45:10;1.55;;;1.48;;
71176;SDS011;58877;51.992;4.504;2023-04-03T15:47:36;1.50;;;1.42;;
71176;SDS011;58877;51.992;4.504;2023-04-03T15:50:03;1.10;;;1.05;;
71176;SDS011;58877;51.992;4.504;2023-04-03T15:52:31;1.26;;;1.22;;
71176;SDS011;58877;51.992;4.504;2023-04-03T15:54:57;1.18;;;1.13;;
71176;SDS011;58877;51.992;4.504;2023-04-03T15:57:23;1.31;;;1.27;;
71176;SDS011;58877;51.992;4.504;2023-04-03T15:59:52;1.22;;;1.19;;
71176;SDS011;58877;51.992;4.504;2023-04-03T16:02:21;1.40;;;1.36;;
71176;SDS011;58877;51.992;4.504;2023-04-03T16:04:51;1.32;;;1.29;;
71176;SDS011;58877;51.992;4.504;2023-04-03T16:07:29;1.39;;;1.35;;
71176;SDS011;58877;51.992;4.504;2023-04-03T16:09:55;1.29;;;1.26;;